Addison, Michigan
Current Conditions -  °F | °C
As of 2:14 PM on Friday 21 Nov 2014 (Local Time) from KJYM Reporting Station
Clear Clear  
Wind Chill: -7°   Ceiling: Unl
Heat Index: -3°   Visibility: 10mi
Dew Point: -11°   Wind: 7mph
Humidity: 52%   Direction: 220°SW
Pressure: 30.4"   Gusts: NA
Location:  41.99°N, 84.35°W
Report Text: KJYM 211914Z AUTO 22006KT 10SM CLR M03/M11 A3040 RMK AO2 T10261112
Loading
Personal Weather Stations






























Interactive Weather Map New forecast layout! Learn more

10-Day Weather Forecast

Advertisements
Track Severe Weather on mobile